Accueil
METAR-TAF:

METAR-TAF

Aéroports :

Lucius D. Clay Kaserne

Wiesbaden, Allemagne

latitude: 50-03N, longitude: 008-20E, altitude: 140 m

Observation

Le bulletin a été fait il y a 16 minutes, à 22:56 UTC
Vent calme
Température 8°C
Humidité 53%
Pression 1021 hPa
Visibilité 10 km ou plus
Ciel clair

METAR: ETOU 282256Z AUTO 00000KT 9999 CLR 08/M01 A3015 RMK AO2 SLP213 T00811014 401900071 $

Heure: 00:12 (23:12 UTC)

Prévision

Le bulletin a été fait il y a 27 heures et 12 minutes, à 20:00 UTC
Prévision valable du 27 à 20 UTC au 28 à 19 UTC
Vent 9 kt de est
Visibilité 10 km ou plus
Ciel clair
Evoluant progressivement
du 27 à 20 UTC au 27 à 21 UTC
Vent 9 kt de nord/nord-est
Visibilité: 2720 m
Ciel clair

TAF: ETOU 272000Z 2720/2819 09009KT 9999 SKC QNH3002INS BECMG 2720/2721 02009KT 9999 SKC QNH3005INS TX12/2720Z TN07/2806Z LAST NO AMDS AFT 2720 NEXT3005

Observations et prévisions météorologiques de plus de 4000 aéroports (messages METAR et TAF).

Les stations disponibles sont représentées par des disques jaunes et rouges sur la carte.

Passer la souris dessus pour voir le nom de la station.

Cliquer dessus pour voir les observations et prévisions météorologiques.

Pour changer de carte: cliquez sur les boutons verts avec une croix noire pour zoomer, sur le bouton vert avec un tiret pour effectuer un zoom arrière, ou sur les flèches vertes pour les cartes adjacentes.


METAR-TAF: